Weather observations for the past three days for
Greater Kankakee Airport
Metric (Imperial)
Date Time (cdt) Wind (kph) Vis. (km) Weather Sky Cond. Temperature (ºC) Relative Humidity Wind Chill (°C) Heat Index (°C) Pressure Precipitation (cm)
Air Dwpt 6 hour altimeter (cm) sea level (mb) 1 hr 3 hr 6 hr
Max. Min.
03 16:15 SW 33 G 43 16.09 Overcast and Breezy OVC075 17.9 3.6 39% 75.74 0.0
03 15:55 SW 31 G 52 16.09 Mostly Cloudy BKN075 BKN110 17.7 2.6 37% 75.74 0.0
03 15:35 SW 24 G 48 16.09 Mostly Cloudy BKN075 17.9 3.2 38% 75.74 0.0
03 15:15 SW 35 G 50 16.09 Overcast and Breezy OVC085 17 1.4 35% 75.79 0.0
03 14:55 S 31 G 50 16.09 Overcast OVC085 17 1.8 36% 75.82 0.0
03 14:35 S 35 G 50 16.09 Overcast and Breezy OVC085 17 2 37% 75.82 0.0
03 14:15 S 37 G 52 16.09 Overcast and Breezy OVC085 16.5 1.9 38% 75.87 0.0
03 13:55 SW 33 G 43 16.09 Overcast and Breezy OVC085 16.6 2.6 39% 75.87 0.0
03 13:35 S 24 G 35 16.09 Overcast OVC085 16 2.9 42% 75.92 0.0
03 13:15 SW 28 G 43 16.09 Overcast OVC085 15.1 1.5 40% 75.97 0.0
03 12:55 SW 28 G 37 16.09 Mostly Cloudy SCT045 SCT055 BKN085 15 3.3 15 7.5 46% 76.02 0.0
03 12:35 SW 22 G 43 16.09 Light Rain SCT044 OVC060 13 3.1 51% 76.1 0.0
03 12:15 S 13 16.09 Overcast BKN060 OVC075 12.6 4.5 58% 76.1 0.0
03 11:55 S 13 16.09 Overcast SCT048 BKN070 OVC080 12.6 3.9 56% 76.1 0.0
03 11:35 SW 11 G 30 16.09 Light Rain BKN050 OVC065 12.2 3.5 56% 76.12 0.0
03 11:15 SW 19 16.09 Overcast SCT040 BKN050 OVC060 12 4.3 60% 76.17 0.0
03 10:55 SW 17 16.09 Light Rain SCT048 BKN060 OVC065 11.9 4.6 61% 76.2 0.0
03 10:35 SW 20 16.09 Light Rain BKN048 BKN050 OVC070 11.8 4.4 61% 76.23 0.0
03 10:15 SW 33 G 41 16.09 Mostly Cloudy and Breezy SCT070 BKN080 12.4 2.8 52% 76.2 0.0
03 09:55 SW 39 G 50 16.09 Mostly Cloudy and Breezy SCT070 BKN090 12.5 2.7 52% 76.17 0.0
03 09:35 SW 28 G 44 16.09 Mostly Cloudy SCT075 BKN090 12.2 2.3 51% 76.2 0.0
03 09:15 SW 24 G 44 16.09 Partly Cloudy SCT100 12 1.7 50% 76.23 0.0
03 08:55 SW 33 G 44 16.09 Fair and Breezy CLR 12 1.5 49% 76.23 0.0
03 08:35 SW 26 G 39 16.09 Fair CLR 11.5 1.7 51% 76.25 0.0
03 08:15 SW 24 G 33 16.09 Fair CLR 11 1.8 53% 76.25 0.0
03 07:55 SW 22 G 33 16.09 Fair CLR 10 1.5 56% 7 76.25 0.0
03 07:35 SW 20 16.09 Fair CLR 8.4 1 60% 6 76.25 0.0
03 07:15 SW 20 G 31 16.09 Fair CLR 7.8 0.4 60% 5 76.25 0.0
03 06:55 SW 22 G 30 16.09 Fair CLR 7.5 0.1 7.5 6 60% 4 76.25 0.0
03 06:35 SW 20 16.09 Fair CLR 6.9 0 62% 4 76.23 0.0
03 06:15 SW 19 16.09 Fair CLR 6.5 -0.5 61% 3 76.23 0.0
03 05:55 SW 15 16.09 Fair CLR 6.1 -0.7 62% 3 76.23 0.0
03 05:35 SW 17 G 26 16.09 Fair CLR 6.5 -1.1 59% 4 76.23 0.0
03 05:15 SW 15 16.09 Fair CLR 6.2 -1.2 59% 4 76.23 0.0
03 04:55 SW 17 16.09 Fair CLR 6.2 -1.2 59% 3 76.25 0.0
03 04:35 SW 17 16.09 Fair CLR 6.5 -1.5 57% 4 76.25 0.0
03 04:15 SW 15 16.09 Fair CLR 6.5 -1.5 57% 4 76.25 0.0
03 03:55 SW 11 16.09 Fair CLR 6.5 -1.5 57% 5 76.25 0.0
03 03:35 SW 15 16.09 Fair CLR 6.9 -1.8 54% 4 76.25 0.0
03 03:15 SW 15 16.09 Fair CLR 7.1 -2 53% 5 76.25 0.0
03 02:55 SW 15 16.09 Fair CLR 7.1 -2.1 52% 5 76.25 0.0
03 02:35 SW 15 16.09 Fair CLR 6.7 -1.9 55% 4 76.25 0.0
03 02:15 SW 15 16.09 Fair CLR 6.8 -2 54% 4 76.28 0.0
03 01:55 SW 13 16.09 Fair CLR 6.3 -1.5 58% 4 76.28 0.0
03 01:35 SW 11 16.09 Fair CLR 6 -1.3 60% 4 76.3 0.0
03 01:15 SW 11 16.09 Fair CLR 6.1 -1.4 59% 4 76.3 0.0
03 00:55 SW 13 16.09 Fair CLR 6.4 -1.4 12.3 5.7 58% 4 76.33 0.0
03 00:35 SW 11 16.09 Fair CLR 6.6 -1.5 57% 5 76.33 0.0
03 00:15 SW 9 16.09 Fair CLR 6.8 -1.4 56% 5 76.35 0.0
02 23:55 SW 11 16.09 Fair CLR 6.9 -1.6 55% 5 76.35 0.0
02 23:35 SW 7 16.09 Fair CLR 7 -1.6 55% 6 76.35 0.0
02 23:15 SW 11 16.09 Fair CLR 7.7 -2 51% 6 76.35 0.0
02 22:55 SW 9 16.09 Fair CLR 7.6 -1.8 52% 6 76.35 0.0
02 22:35 S 9 16.09 Fair CLR 8.2 -2 49% 7 76.35 0.0
02 22:15 SW 7 16.09 Fair CLR 8.2 -1.7 50% 7 76.35 0.0
02 21:55 SW 7 16.09 Fair CLR 8.6 -1.9 48% 8 76.35 0.0
02 21:35 SW 7 16.09 Fair CLR 9 -1.7 47% 8 76.38 0.0
02 21:15 S 7 16.09 Partly Cloudy SCT090 8.9 -1.3 49% 8 76.35 0.0
02 20:55 S 6 16.09 Partly Cloudy SCT090 8.6 0.1 55% 76.35 0.0
02 20:35 S 6 16.09 Mostly Cloudy BKN090 9.1 0 53% 76.35 0.0
02 20:15 Calm 16.09 Mostly Cloudy BKN090 9.9 -0.7 48% 76.33 0.0
02 19:55 SW 6 16.09 Partly Cloudy SCT090 10.5 -1.2 44% 76.33 0.0
02 19:35 Calm 16.09 Partly Cloudy SCT090 11.3 -2.6 38% 76.33 0.0
02 19:15 Calm 16.09 Mostly Cloudy BKN090 11.7 -2.5 37% 76.33 0.0
02 18:55 Calm 16.09 Partly Cloudy SCT090 12.4 -2.7 13.7 10.3 35% 76.33 0.0
02 18:35 NW 9 16.09 Partly Cloudy SCT090 11.7 -3 36% 76.35 0.0
02 18:15 NW 15 16.09 Partly Cloudy SCT090 12.9 -2.9 33% 76.35 0.0
02 17:55 NW 7 16.09 Partly Cloudy SCT090 13 -3.1 33% 76.35 0.0
02 17:35 N 11 16.09 Mostly Cloudy BKN090 12.5 -2.7 35% 76.35 0.0
02 17:15 NW 9 16.09 Mostly Cloudy SCT070 BKN090 11.9 -3.3 35% 76.38 0.0
02 16:55 N 17 G 41 16.09 Mostly Cloudy SCT070 BKN090 12.4 -2.3 36% 76.38 0.0
02 16:35 NW 17 G 28 16.09 Mostly Cloudy SCT070 BKN090 13 -3.4 32% 76.38 0.0
02 16:15 NW 13 G 26 16.09 Mostly Cloudy SCT070 BKN080 13.3 -2.8 33% 76.38 0.0
02 15:55 NW 17 16.09 Mostly Cloudy BKN080 12.7 -3.6 32% 76.38 0.0
02 15:35 W 20 G 26 16.09 Partly Cloudy SCT070 SCT080 12.2 -3.4 34% 76.4 0.0
02 15:15 N 7 16.09 Partly Cloudy SCT075 12.9 -3.2 33% 76.43 0.0
02 14:55 N 17 G 30 16.09 Partly Cloudy SCT075 11.7 -3.5 35% 76.43 0.0
02 14:35 NW 17 16.09 Mostly Cloudy BKN075 12.3 -3.5 33% 76.45 0.0
02 14:15 NW 13 16.09 Overcast OVC075 11.5 -3.9 34% 76.48 0.0
02 13:55 NW 9 16.09 Overcast OVC075 11.2 -3.8 35% 76.48 0.0
02 13:35 N 15 16.09 Overcast OVC075 11.3 -3 37% 76.48 0.0
02 13:15 NW 15 16.09 Overcast OVC075 10.9 -3.8 36% 76.5 0.0
02 12:55 NW 15 16.09 Overcast OVC060 10.3 -4.1 11.2 2.3 36% 76.5 0.0
02 12:35 Calm 16.09 Mostly Cloudy BKN060 BKN070 10 -4.4 36% 76.53 0.0
02 12:15 NW 6 16.09 Mostly Cloudy BKN060 10.7 -4 36% 76.56 0.0
02 11:55 NE 6 16.09 Partly Cloudy SCT060 10.8 -3.6 37% 76.56 0.0
02 11:35 N 9 16.09 Mostly Cloudy BKN060 9.9 -3.7 39% 9 76.56 0.0
02 11:15 N 15 16.09 Partly Cloudy SCT060 10.1 -3.3 39% 76.56 0.0
02 10:55 NW 13 16.09 Partly Cloudy SCT060 9.8 -3.8 38% 8 76.58 0.0
02 10:35 N 13 16.09 Fair CLR 9.5 -3.7 40% 8 76.58 0.0
02 10:15 Calm 16.09 Fair CLR 9 -4.6 38% 76.58 0.0
02 09:55 N 6 16.09 Fair CLR 8.6 -1.6 49% 76.58 0.0
02 09:35 NE 6 16.09 Fair CLR 8.2 -1.9 49% 76.58 0.0
02 09:15 Calm 16.09 Fair CLR 7.4 -0.3 58% 76.56 0.0
02 08:55 W 6 16.09 Fair CLR 6.8 -1.2 57% 76.56 0.0
02 08:35 Calm 16.09 Fair CLR 6.3 -1.1 59% 76.56 0.0
02 08:15 Calm 16.09 Fair CLR 5.6 -1.2 62% 76.56 0.0
02 07:55 Calm 16.09 Fair CLR 5.1 -0.3 68% 76.56 0.0
02 07:35 Calm 16.09 Fair CLR 4.6 0 72% 76.56 0.0
02 07:15 Calm 16.09 Fair CLR 3.8 1.1 83% 76.53 0.0
02 06:55 Calm 16.09 Fair CLR 2.2 1.3 3.7 0.5 94% 76.53 0.0
02 06:35 Calm 16.09 Fair CLR 1.9 0.6 91% 76.5 0.0
02 06:15 Calm 16.09 Fair CLR 0.6 0 96% 76.5 0.0
02 05:55 Calm 16.09 Fair CLR 1.5 -0.2 89% 76.5 0.0
02 05:35 Calm 16.09 Fair CLR 1.9 -0.3 86% 76.5 0.0
02 05:15 Calm 16.09 Fair CLR 2.5 -0.3 82% 76.5 0.0
02 04:55 Calm 16.09 Fair CLR 2.8 -0.5 79% 76.5 0.0
02 04:35 Calm 16.09 Partly Cloudy SCT085 3 0 81% 76.48 0.0
02 04:15 Calm 16.09 Mostly Cloudy BKN085 3.4 0.1 79% 76.48 0.0
02 03:55 Calm 16.09 Overcast OVC085 3.4 0.5 82% 76.48 0.0
02 03:35 Calm 16.09 Overcast OVC085 3.5 0 78% 76.48 0.0
02 03:15 Calm 16.09 Overcast OVC085 3.5 0.7 82% 76.48 0.0
02 02:55 Calm 16.09 Overcast SCT055 OVC085 3.6 0 78% 76.48 0.0
02 02:35 Calm 16.09 Overcast SCT055 OVC085 3.5 -0.1 78% 76.48 0.0
02 02:15 Calm 16.09 Overcast OVC085 3 0.1 81% 76.45 0.0
02 01:55 N 6 16.09 Mostly Cloudy BKN085 2.7 0 83% 76.48 0.0
02 01:35 NE 9 16.09 Mostly Cloudy BKN085 2.8 0 82% 1 76.48 0.0
02 01:15 NE 6 16.09 Overcast SCT070 OVC085 3.5 0 78% 76.5 0.0
02 00:55 Calm 16.09 Overcast OVC085 3.2 0 9 3.1 80% 76.5 0.0
02 00:35 E 6 16.09 Overcast SCT070 OVC085 3.3 -0.2 78% 76.5 0.0
02 00:15 NE 9 16.09 Mostly Cloudy BKN070 BKN085 3.5 -0.5 75% 1 76.5 0.0
01 23:55 NE 9 16.09 Mostly Cloudy SCT070 BKN085 3.5 -0.5 75% 1 76.5 0.0
01 23:35 E 7 16.09 Mostly Cloudy BKN085 3.2 -0.7 76% 2 76.5 0.0
01 23:15 NE 9 16.09 Fair CLR 3.4 -0.9 74% 1 76.5 0.0
01 22:55 E 13 16.09 Fair CLR 3.6 -0.9 73% 1 76.5 0.0
01 22:35 NE 13 16.09 Fair CLR 3.8 -0.5 74% 1 76.5 0.0
01 22:15 NE 13 16.09 Fair CLR 4 -0.2 74% 1 76.5 0.0
01 21:55 NE 15 16.09 Fair CLR 4.4 -0.2 72% 1 76.48 0.0
01 21:35 NE 20 G 26 16.09 Fair CLR 4.8 -0.4 69% 1 76.45 0.0
01 21:15 NE 20 16.09 Fair CLR 5.3 0 69% 2 76.43 0.0
01 20:55 NE 22 16.09 Fair CLR 5.6 0.4 70% 2 76.4 0.0
01 20:15 NE 15 16.09 Partly Cloudy SCT065 6.6 0.9 67% 4 76.35 0.0
01 19:55 NE 15 16.09 Mostly Cloudy BKN065 7.6 1.5 66% 5 76.35 0.0
01 19:35 NE 13 16.09 Fair CLR 7.3 1.3 66% 5 76.33 0.0
01 19:15 NE 13 16.09 Fair CLR 8.5 1.1 60% 7 76.3 0.0
01 18:55 NE 19 16.09 Partly Cloudy SCT060 9 1.3 11.7 8.8 59% 7 76.3 0.0
01 18:35 NE 15 16.09 Partly Cloudy SCT060 8.8 1.3 60% 7 76.33 0.0
01 18:15 NE 11 16.09 Partly Cloudy SCT041 SCT050 SCT065 9.2 1.1 57% 8 76.3 0.0
01 17:55 NE 7 16.09 Overcast SCT044 OVC050 9.8 0.5 53% 9 76.3 0.0
01 17:35 N 7 16.09 Light Rain SCT034 OVC043 9.2 0.7 56% 8 76.33 0.0
01 17:15 NE 9 16.09 Overcast BKN048 OVC050 9.7 1.8 58% 9 76.33 0.0
01 16:55 NE 11 16.09 Overcast SCT047 BKN050 OVC065 9.9 1.4 56% 9 76.33 0.0
01 16:35 NE 15 16.09 Overcast SCT046 OVC050 10 2 58% 8 76.33 0.0
01 16:15 E 13 16.09 Overcast OVC050 9.8 2 59% 8 76.3 0.0
01 15:55 N 6 16.09 Overcast OVC060 10.5 -0.6 46% 76.3 0.0
01 15:35 NW 11 16.09 Overcast BKN060 BKN070 OVC090 11.3 -0.3 45% 76.3 0.0
01 15:15 NW 13 16.09 Overcast SCT050 SCT070 OVC090 11.4 -0.6 44% 76.3 0.0
01 14:55 N 9 16.09 Mostly Cloudy SCT060 SCT080 BKN090 11 -0.7 45% 76.33 0.0
01 14:35 N 15 16.09 Overcast BKN050 BKN060 OVC075 10.6 -0.5 46% 76.33 0.0
01 14:15 N 11 16.09 Overcast BKN050 BKN070 OVC080 10.7 -0.3 47% 76.3 0.0
01 13:55 NW 15 16.09 Overcast SCT055 SCT070 OVC080 10.9 -0.1 47% 76.3 0.0
01 13:35 NW 13 16.09 Overcast BKN049 OVC070 10.5 -0.3 47% 76.3 0.0
01 13:15 NW 11 16.09 Overcast SCT049 OVC070 10.9 -0.2 47% 76.3 0.0
01 12:55 N 15 16.09 Overcast BKN049 OVC060 10.1 -0.3 11.5 5.8 49% 76.3 0.0
01 12:35 NW 17 16.09 Partly Cloudy SCT049 SCT055 SCT065 11.1 -0.1 46% 76.28 0.0
01 12:15 N 9 16.09 Mostly Cloudy SCT038 SCT050 BKN065 11 1.1 51% 76.3 0.0
01 11:55 Calm 16.09 Overcast SCT031 BKN038 OVC065 9.5 0.5 54% 76.3 0.0
01 11:35 NW 17 G 35 16.09 Mostly Cloudy SCT030 SCT036 BKN055 10.3 2 57% 76.3 0.0
01 11:15 N 17 G 30 16.09 Overcast SCT031 SCT049 OVC055 9 2.1 62% 7 76.3 0.0
01 10:55 N 7 16.09 Overcast SCT027 SCT037 OVC065 8.7 2 63% 8 76.3 0.0
01 10:35 N 17 G 39 16.09 Overcast SCT027 BKN037 OVC065 8.1 1.7 64% 6 76.3 0.0
01 10:15 NW 26 G 33 16.09 Mostly Cloudy SCT025 SCT032 BKN065 8.8 3.2 68% 6 76.3 0.0
01 09:55 N 17 16.09 Partly Cloudy SCT024 SCT028 SCT036 8.1 2.7 69% 6 76.3 0.0
01 09:35 N 13 16.09 Partly Cloudy SCT022 SCT027 SCT036 7.9 2.8 70% 6 76.3 0.0
01 09:15 N 13 16.09 Mostly Cloudy BKN022 BKN028 7.6 3.1 73% 6 76.3 0.0
01 08:55 N 13 16.09 Mostly Cloudy BKN020 BKN026 7.8 3.2 73% 6 76.3 0.0
01 08:35 N 9 16.09 Partly Cloudy SCT018 7.5 2.9 73% 6 76.28 0.0
01 08:15 N 9 16.09 Partly Cloudy SCT014 7 2.6 74% 5 76.25 0.0
01 07:55 N 11 16.09 Partly Cloudy SCT014 SCT050 SCT060 6.6 3.6 81% 5 76.25 0.0
01 07:35 NE 13 16.09 Mostly Cloudy BKN050 6.1 3.4 83% 4 76.23 0.0
01 07:15 N 13 16.09 Overcast SCT014 BKN036 OVC055 5.8 4 88% 3 76.23 0.0
01 06:55 N 17 11.27 Overcast SCT010 SCT018 OVC036 5.8 4.5 6.6 5.6 91% 3 76.2 0.0
01 06:35 N 7 11.27 Overcast BKN010 BKN021 OVC034 5.7 4.7 93% 4 76.17 0.0
01 06:15 N 13 8.05 Fog/Mist SCT010 BKN019 OVC060 5.6 4.8 95% 3 76.17 0.0
01 05:55 N 11 11.27 Light Rain SCT010 BKN015 OVC060 5.6 4.8 95% 3 76.12 0.0
01 05:35 NW 11 8.05 Light Rain BKN013 OVC018 5.6 4.8 95% 3 76.12 0.0
01 05:15 NW 11 11.27 Overcast BKN016 BKN028 OVC048 5.7 4.3 91% 4 76.15 0.0
01 04:55 N 15 16.09 Overcast SCT024 BKN049 OVC055 5.6 4.2 91% 3 76.12 0.0
01 04:35 N 11 16.09 Overcast SCT009 OVC022 5.7 4.6 93% 4 76.12 0.0
01 04:15 N 11 11.27 Overcast BKN007 OVC020 5.8 5 95% 4 76.1 0.0
01 03:55 N 13 8.05 Fog/Mist SCT007 OVC020 5.9 5 94% 3 76.07 0.0
01 03:35 NE 7 8.05 Fog/Mist SCT007 OVC018 5.8 5 95% 5 76.07 0.0
01 03:15 NE 15 16.09 Overcast SCT009 OVC018 6 5.1 94% 3 76.07 0.0
01 02:55 NE 15 16.09 Overcast SCT007 OVC016 6 5 93% 3 76.07 0.0
01 02:35 NE 15 16.09 Overcast BKN007 OVC018 6 5.2 95% 3 76.07 0.0
01 02:15 N 15 16.09 Overcast SCT005 BKN020 OVC034 6 5.2 95% 3 76.07 0.0
01 01:55 NE 11 11.27 Mostly Cloudy SCT032 BKN037 BKN100 6 5.2 95% 4 76.05 0.0
01 01:35 NE 11 11.27 Partly Cloudy SCT029 SCT043 SCT070 6 5.1 94% 4 76.05 0.0
01 01:15 NE 17 11.27 Light Rain SCT015 BKN029 OVC043 6.6 5.6 93% 4 76.05 0.0
01 00:55 NE 9 16.09 Light Rain OVC015 6.5 5.2 11.1 6.5 92% 5 76.07 0.0 0.08
01 00:35 N 15 11.27 Light Rain BKN015 BKN031 OVC045 6.8 6 95% 4 76.07 0.0
01 00:15 E 7 16.09 Light Rain SCT019 BKN031 OVC047 6.8 5.7 93% 6 76.07 0.0
30 23:55 NE 7 16.09 Light Rain OVC021 6.7 5.2 90% 6 76.07 0.0 0.03
30 23:35 NE 11 16.09 Light Rain BKN022 OVC060 6.7 5.5 92% 5 76.07 0.0 0.03
30 23:15 NE 13 16.09 Light Rain SCT005 BKN021 OVC050 6.7 5.8 94% 4 76.1 0.0 0.03
30 22:55 N 13 8.05 Light Rain SCT007 BKN050 OVC060 7.7 7 95% 6 76.1 0.0 0.05
30 22:35 NE 15 8.05 Light Rain OVC050 8.7 7.9 95% 7 76.1 0.0 0.03
30 22:15 NE 11 11.27 Overcast SCT043 OVC050 9.2 8.5 95% 8 76.1 0.0
30 21:55 Calm 16.09 Light Rain BKN050 BKN120 9.2 8.5 95% 76.12 0.0
30 21:35 E 6 16.09 Mostly Cloudy BKN050 9.2 8.5 95% 76.12 0.0
30 21:15 SE 6 16.09 Overcast OVC048 9.6 8.5 93% 76.12 0.0
30 20:55 SE 6 16.09 Overcast BKN050 OVC055 9.5 8.5 94% 76.12 0.0
30 20:35 Calm 16.09 Overcast OVC050 9.6 8.2 91% 76.1 0.0
30 20:15 E 6 16.09 Light Rain BKN050 OVC070 9.8 8.5 92% 76.1 0.0
30 19:55 N 6 16.09 Light Rain OVC055 10.2 7.6 84% 76.1 0.0
30 19:35 NE 6 16.09 Light Rain OVC055 10.4 8.1 86% 76.07 0.0
30 19:15 N 7 16.09 Light Rain OVC055 10.9 6.7 76% 76.07 0.0
30 18:55 Calm 16.09 Overcast BKN055 OVC065 11.1 6.3 16.4 11.1 73% 76.07 0.0
30 18:35 NW 19 G 26 16.09 Overcast BKN050 OVC065 11.5 5.4 66% 76.07 0.0
30 18:15 NW 15 16.09 Light Rain BKN050 OVC065 11.7 5.4 66% 76.1 0.0
30 17:55 NW 11 16.09 Light Rain OVC060 12.5 4.6 59% 76.1 0.0
30 17:35 NW 15 16.09 Overcast BKN060 OVC080 12.7 3.8 55% 76.1 0.0
30 17:15 NW 17 16.09 Overcast BKN055 BKN070 OVC080 13.1 3.6 53% 76.07 0.0
30 16:55 NW 17 16.09 Overcast BKN055 OVC070 13.5 3.3 50% 76.1 0.0
Date Time (cdt) Wind (kph) Vis. (km) Weather Sky Cond. Air Dwpt Max. Min. Relative Humidity Wind Chill (°C) Heat Index (°C) altimeter (cm) sea level (mb) 1 hr 3 hr 6 hr
6 hour
Temperature (ºC) Pressure Precipitation (cm)